createdAt,value
2018-11-06T20:23:59.011Z,49.40
2018-11-06T20:30:01.496Z,41.10
2018-11-06T20:32:30.228Z,51.20
2018-11-06T20:34:59.837Z,55.90
2018-11-06T20:37:29.312Z,62.50
2018-11-06T20:39:57.997Z,69.90
2018-11-06T20:42:27.613Z,74.00
2018-11-06T20:44:56.470Z,75.30
2018-11-06T20:47:25.129Z,75.70
2018-11-06T20:49:54.029Z,78.30
2018-11-06T20:52:23.673Z,78.70
2018-11-06T20:54:53.384Z,80.00
2018-11-06T20:57:22.120Z,81.60
2018-11-06T20:59:51.148Z,81.50
2018-11-06T21:02:20.061Z,85.00
2018-11-06T21:04:48.753Z,83.00
2018-11-06T21:07:19.117Z,83.20
2018-11-06T21:09:47.825Z,85.70
2018-11-06T21:12:16.543Z,84.30
2018-11-06T21:14:45.282Z,85.10
2018-11-06T21:17:14.038Z,86.60
2018-11-06T21:19:42.794Z,85.20
2018-11-06T21:22:12.323Z,85.20
2018-11-06T21:24:41.119Z,85.60
2018-11-06T21:27:10.115Z,85.80
2018-11-06T21:29:38.718Z,87.30
2018-11-06T21:32:09.040Z,86.70
2018-11-06T21:34:37.724Z,85.60
2018-11-06T21:37:06.461Z,85.60
2018-11-06T21:39:35.232Z,85.50
2018-11-06T21:42:04.061Z,85.60
2018-11-06T21:44:32.753Z,84.20
2018-11-06T21:47:01.428Z,84.30
2018-11-06T21:49:30.135Z,84.30
2018-11-06T21:51:59.631Z,84.70
2018-11-06T21:54:28.325Z,85.40
2018-11-06T21:56:56.964Z,86.60
2018-11-06T21:59:25.616Z,84.80
2018-11-06T22:01:54.942Z,85.80
2018-11-06T22:04:23.582Z,83.40
2018-11-06T22:06:52.386Z,84.70
2018-11-06T22:09:21.032Z,85.80
2018-11-06T22:11:49.646Z,85.20
2018-11-06T22:14:18.277Z,85.40
2018-11-06T22:16:46.848Z,85.80
2018-11-06T22:19:15.498Z,85.60
2018-11-06T22:21:44.215Z,84.50
2018-11-06T22:24:12.794Z,85.30
2018-11-06T22:26:41.444Z,84.80
2018-11-06T22:29:10.109Z,85.10
2018-11-06T22:31:38.813Z,85.60
2018-11-06T22:34:07.711Z,86.00
2018-11-06T22:36:36.340Z,84.90
2018-11-06T22:39:07.414Z,85.90
2018-11-06T22:41:36.168Z,85.60
2018-11-06T22:44:05.005Z,85.80
2018-11-06T22:46:33.618Z,84.90
2018-11-06T22:49:02.263Z,85.70
2018-11-06T22:51:30.978Z,85.20
2018-11-06T22:53:59.603Z,85.30
2018-11-06T22:56:28.395Z,84.40
2018-11-06T22:58:57.177Z,84.70
2018-11-06T23:01:26.212Z,84.30
2018-11-06T23:03:55.362Z,84.00
2018-11-06T23:06:24.240Z,85.10
2018-11-06T23:08:52.904Z,85.20
2018-11-06T23:11:21.661Z,84.50
2018-11-06T23:13:50.335Z,84.20
2018-11-06T23:16:18.949Z,84.30
2018-11-06T23:18:47.672Z,84.40
2018-11-06T23:21:16.299Z,84.30
2018-11-06T23:23:45.068Z,84.70
2018-11-06T23:26:13.839Z,85.30
2018-11-06T23:28:42.453Z,84.60
2018-11-06T23:31:11.093Z,84.80
2018-11-06T23:33:39.727Z,85.30
2018-11-06T23:36:08.860Z,85.90
2018-11-06T23:38:37.636Z,85.80
2018-11-06T23:41:06.736Z,85.80
2018-11-06T23:43:35.405Z,87.10
2018-11-06T23:46:04.281Z,88.60
2018-11-06T23:48:33.161Z,89.60
2018-11-06T23:51:01.907Z,89.50
2018-11-06T23:53:30.653Z,89.30
2018-11-06T23:55:59.740Z,89.00
2018-11-06T23:58:28.477Z,89.10
